createdAt,value
2018-10-12T00:01:39.698Z,29.77
2018-10-12T00:04:08.342Z,29.57
2018-10-12T00:06:36.665Z,26.47
2018-10-12T00:09:07.628Z,28.03
2018-10-12T00:11:35.944Z,24.97
2018-10-12T00:14:04.325Z,28.27
2018-10-12T00:16:32.617Z,22.33
2018-10-12T00:19:00.964Z,21.83
2018-10-12T00:21:30.142Z,21.10
2018-10-12T00:23:58.477Z,24.93
2018-10-12T00:26:27.005Z,23.23
2018-10-12T00:28:56.008Z,26.63
2018-10-12T00:31:24.321Z,34.13
2018-10-12T00:33:52.629Z,30.53
2018-10-12T00:36:20.949Z,29.50
2018-10-12T00:38:49.320Z,29.10
2018-10-12T00:41:17.621Z,25.07
2018-10-12T00:43:45.924Z,25.90
2018-10-12T00:46:14.261Z,22.63
2018-10-12T00:48:42.576Z,24.30
2018-10-12T00:51:10.905Z,30.27
2018-10-12T00:53:39.222Z,22.23
2018-10-12T00:56:07.722Z,23.53
2018-10-12T00:58:36.116Z,27.43
2018-10-12T01:01:04.465Z,23.03
2018-10-12T01:03:32.756Z,31.53
2018-10-12T01:06:01.125Z,24.73
2018-10-12T01:08:29.435Z,25.07
2018-10-12T01:10:57.902Z,27.20
2018-10-12T01:13:26.210Z,29.53
2018-10-12T01:15:54.548Z,22.97
2018-10-12T01:18:22.893Z,35.50
2018-10-12T01:20:51.280Z,24.13
2018-10-12T01:23:19.634Z,24.57
2018-10-12T01:25:48.027Z,33.97
2018-10-12T01:28:16.364Z,31.27
2018-10-12T01:30:44.714Z,24.87
2018-10-12T01:33:13.152Z,26.70
2018-10-12T01:35:41.512Z,23.20
2018-10-12T01:38:09.828Z,21.70
2018-10-12T01:40:38.161Z,21.60
2018-10-12T01:43:06.730Z,20.70
2018-10-12T01:45:35.046Z,22.47
2018-10-12T01:48:03.425Z,20.40
2018-10-12T01:50:31.780Z,27.80
2018-10-12T01:53:00.134Z,21.80
2018-10-12T01:55:28.482Z,20.93
2018-10-12T01:57:56.825Z,20.50
2018-10-12T02:00:25.169Z,21.97
2018-10-12T02:02:53.466Z,31.03
2018-10-12T02:05:21.870Z,24.63
2018-10-12T02:07:50.200Z,21.57
2018-10-12T02:10:18.540Z,21.27
2018-10-12T02:12:46.861Z,22.70
2018-10-12T02:15:15.338Z,24.37
2018-10-12T02:17:43.662Z,26.23
2018-10-12T02:20:12.319Z,24.53
2018-10-12T02:22:40.780Z,24.43
2018-10-12T02:25:09.545Z,20.97
2018-10-12T02:27:37.874Z,28.07
2018-10-12T02:30:07.019Z,20.40
2018-10-12T02:32:36.044Z,22.93
2018-10-12T02:35:04.399Z,25.60
2018-10-12T02:37:32.899Z,32.87
2018-10-12T02:40:02.226Z,26.90
2018-10-12T02:42:30.549Z,19.33
2018-10-12T02:44:58.869Z,28.90
2018-10-12T02:47:27.176Z,24.10
2018-10-12T02:49:55.496Z,19.23
2018-10-12T02:52:24.129Z,22.20
2018-10-12T02:54:52.449Z,23.20
2018-10-12T02:57:20.791Z,20.50
2018-10-12T02:59:49.477Z,19.23
2018-10-12T03:02:17.813Z,20.47
2018-10-12T03:04:46.270Z,16.30
2018-10-12T03:07:14.614Z,22.53
2018-10-12T03:09:42.925Z,17.33
2018-10-12T03:12:11.251Z,18.30
2018-10-12T03:14:39.571Z,27.13
2018-10-12T03:17:07.906Z,17.50
2018-10-12T03:19:36.238Z,18.57
2018-10-12T03:22:04.581Z,15.93
2018-10-12T03:24:32.923Z,16.37
2018-10-12T03:27:01.292Z,14.83
2018-10-12T03:29:29.650Z,19.70
2018-10-12T03:31:58.010Z,18.73
2018-10-12T03:34:26.422Z,20.83
2018-10-12T03:36:54.800Z,18.57
2018-10-12T03:39:23.554Z,16.47
2018-10-12T03:41:51.925Z,32.80
2018-10-12T03:44:20.236Z,16.90
2018-10-12T03:46:49.392Z,12.47
2018-10-12T03:49:17.730Z,16.30
2018-10-12T03:51:46.096Z,11.60
2018-10-12T03:54:14.430Z,13.50
2018-10-12T03:56:43.537Z,14.77
2018-10-12T03:59:11.844Z,14.23
2018-10-12T04:01:40.149Z,10.60
2018-10-12T04:04:08.492Z,13.10
2018-10-12T04:06:36.822Z,14.27
2018-10-12T04:09:06.750Z,13.60
2018-10-12T04:11:35.201Z,16.00
2018-10-12T04:14:03.728Z,11.80
2018-10-12T04:16:32.042Z,10.50
2018-10-12T04:19:00.358Z,10.90
2018-10-12T04:21:28.748Z,10.80
2018-10-12T04:23:57.058Z,12.33
2018-10-12T04:26:25.379Z,10.23
2018-10-12T04:28:53.685Z,10.70
2018-10-12T04:31:21.994Z,12.20
2018-10-12T04:33:50.325Z,14.23
2018-10-12T04:36:18.640Z,9.20
2018-10-12T04:38:58.114Z,10.10
2018-10-12T04:41:26.761Z,11.77
2018-10-12T04:43:59.362Z,19.30
2018-10-12T04:46:38.926Z,13.70
2018-10-12T04:49:08.416Z,14.90
2018-10-12T04:51:42.845Z,12.43
2018-10-12T04:54:11.324Z,10.60
2018-10-12T04:56:39.632Z,14.37
2018-10-12T04:59:07.981Z,12.50
2018-10-12T05:01:36.459Z,14.67
2018-10-12T05:04:04.809Z,15.20
2018-10-12T05:06:33.158Z,12.00
2018-10-12T05:09:01.531Z,14.10
2018-10-12T05:11:29.850Z,12.00
2018-10-12T05:13:58.200Z,10.63
2018-10-12T05:16:26.513Z,21.23
2018-10-12T05:18:54.842Z,10.03
2018-10-12T05:21:23.240Z,17.00
2018-10-12T05:23:51.536Z,15.20
2018-10-12T05:26:19.897Z,11.90
2018-10-12T05:28:48.261Z,11.73
2018-10-12T05:31:16.603Z,11.50
2018-10-12T05:33:44.899Z,10.80
2018-10-12T05:36:13.349Z,12.50
2018-10-12T05:38:41.541Z,16.53
2018-10-12T05:41:14.413Z,13.37
2018-10-12T05:43:47.031Z,11.47
2018-10-12T05:46:15.231Z,12.33
2018-10-12T05:48:56.174Z,19.27
2018-10-12T05:51:29.695Z,18.43
2018-10-12T05:53:58.409Z,20.60
2018-10-12T05:56:30.572Z,11.20
2018-10-12T05:58:59.342Z,12.03
2018-10-12T06:01:27.875Z,17.60
2018-10-12T06:03:56.178Z,10.47
2018-10-12T06:06:24.535Z,10.17
2018-10-12T06:08:52.948Z,17.30
2018-10-12T06:11:21.336Z,17.13
2018-10-12T06:13:49.631Z,14.10
2018-10-12T06:16:17.977Z,13.63
2018-10-12T06:18:46.353Z,12.70
2018-10-12T06:21:14.814Z,10.93
2018-10-12T06:23:43.129Z,10.80
2018-10-12T06:26:11.719Z,10.60
2018-10-12T06:28:40.075Z,12.73
2018-10-12T06:31:08.921Z,12.60
2018-10-12T06:33:37.405Z,14.37
2018-10-12T06:36:05.741Z,19.83
2018-10-12T06:38:34.041Z,14.07
2018-10-12T06:41:02.471Z,11.60
2018-10-12T06:43:30.812Z,25.33
2018-10-12T06:45:59.872Z,19.17
2018-10-12T06:48:28.177Z,18.07
2018-10-12T06:50:56.482Z,22.33
2018-10-12T06:53:24.796Z,17.13
2018-10-12T06:55:53.128Z,22.60
2018-10-12T06:58:21.441Z,20.43
2018-10-12T07:00:49.807Z,18.23
2018-10-12T07:03:18.128Z,15.80
2018-10-12T07:05:46.536Z,14.83
2018-10-12T07:08:14.845Z,23.67
2018-10-12T07:10:43.227Z,22.80
2018-10-12T07:13:11.577Z,14.60
2018-10-12T07:15:39.884Z,18.80
2018-10-12T07:18:08.368Z,35.67
2018-10-12T07:20:36.711Z,16.87
2018-10-12T07:23:05.145Z,30.83
2018-10-12T07:25:33.501Z,12.70
2018-10-12T07:28:01.848Z,17.60
2018-10-12T07:30:30.209Z,14.50
2018-10-12T07:32:58.496Z,19.53
2018-10-12T07:35:26.816Z,13.20
2018-10-12T07:37:55.193Z,26.57
2018-10-12T07:40:24.162Z,17.30
2018-10-12T07:42:52.492Z,19.40
2018-10-12T07:45:20.785Z,15.07
2018-10-12T07:47:49.102Z,10.80
2018-10-12T07:50:17.397Z,12.87
2018-10-12T07:52:45.713Z,15.73
2018-10-12T07:55:14.013Z,16.63
2018-10-12T07:57:42.325Z,15.03
2018-10-12T08:00:10.659Z,11.00
2018-10-12T08:02:38.895Z,10.80
2018-10-12T08:05:07.256Z,14.13
2018-10-12T08:07:35.685Z,17.00
2018-10-12T08:10:04.033Z,14.50
2018-10-12T08:12:32.372Z,22.10
2018-10-12T08:15:00.732Z,16.13
2018-10-12T08:17:29.069Z,13.40
2018-10-12T08:19:57.454Z,17.07
2018-10-12T08:22:25.765Z,15.97
2018-10-12T08:24:54.493Z,11.67
2018-10-12T08:27:22.830Z,19.17
2018-10-12T08:29:51.538Z,11.53
2018-10-12T08:32:20.824Z,10.80
2018-10-12T08:34:49.155Z,8.37
2018-10-12T08:37:17.463Z,15.93
2018-10-12T08:39:45.797Z,7.93
2018-10-12T08:42:14.603Z,21.43
2018-10-12T08:44:42.905Z,11.00
2018-10-12T08:47:11.216Z,9.13
2018-10-12T08:49:39.521Z,10.77
2018-10-12T08:52:07.889Z,16.37
2018-10-12T08:54:36.186Z,11.17
2018-10-12T08:57:04.513Z,15.20
2018-10-12T08:59:33.381Z,14.77
2018-10-12T09:02:01.689Z,9.17
2018-10-12T09:04:29.998Z,7.83
2018-10-12T09:06:58.797Z,7.63
2018-10-12T09:09:27.191Z,7.27
2018-10-12T09:11:55.517Z,10.93
2018-10-12T09:14:23.837Z,10.73
2018-10-12T09:16:52.168Z,23.77
2018-10-12T09:19:20.473Z,8.43
2018-10-12T09:21:48.855Z,7.67
2018-10-12T09:24:17.105Z,8.47
2018-10-12T09:26:45.416Z,14.03
2018-10-12T09:29:13.718Z,9.00
2018-10-12T09:31:42.021Z,8.83
2018-10-12T09:34:10.564Z,10.13
2018-10-12T09:36:38.977Z,11.40
2018-10-12T09:39:07.630Z,14.10
2018-10-12T09:41:35.921Z,7.37
2018-10-12T09:44:04.246Z,6.73
2018-10-12T09:46:32.528Z,6.90
2018-10-12T09:49:00.825Z,7.77
2018-10-12T09:51:29.277Z,6.07
2018-10-12T09:53:57.629Z,9.40
2018-10-12T09:56:25.994Z,7.90
2018-10-12T09:58:54.292Z,21.20
2018-10-12T10:01:27.928Z,9.57
2018-10-12T10:04:01.562Z,7.27
2018-10-12T10:06:30.017Z,7.00
2018-10-12T10:08:58.342Z,9.10
2018-10-12T10:11:26.780Z,16.33
2018-10-12T10:13:55.131Z,5.90
2018-10-12T10:16:23.369Z,8.90
2018-10-12T10:18:51.682Z,6.80
2018-10-12T10:21:20.005Z,7.40
2018-10-12T10:23:48.328Z,9.53
2018-10-12T10:26:16.671Z,7.00
2018-10-12T10:28:44.982Z,7.43
2018-10-12T10:31:13.280Z,5.27
2018-10-12T10:33:41.617Z,4.43
2018-10-12T10:36:09.951Z,6.40
2018-10-12T10:38:38.781Z,4.77
2018-10-12T10:41:07.101Z,7.20
2018-10-12T10:43:35.414Z,8.23
2018-10-12T10:46:03.757Z,7.87
2018-10-12T10:48:32.101Z,10.33
2018-10-12T10:51:00.425Z,4.07
2018-10-12T10:53:28.750Z,6.23
2018-10-12T10:55:57.250Z,4.53
2018-10-12T10:58:26.072Z,7.30
2018-10-12T11:00:54.449Z,10.33
2018-10-12T11:03:22.954Z,2.73
2018-10-12T11:05:51.269Z,3.13
2018-10-12T11:08:19.577Z,7.63
2018-10-12T11:10:48.395Z,3.63
2018-10-12T11:13:18.961Z,12.60
2018-10-12T11:15:47.408Z,11.40
2018-10-12T11:18:15.956Z,11.17
2018-10-12T11:20:44.801Z,6.13
2018-10-12T11:23:13.108Z,5.17
2018-10-12T11:25:41.419Z,1.50
2018-10-12T11:28:09.797Z,3.53
2018-10-12T11:30:38.101Z,3.93
2018-10-12T11:33:06.501Z,3.90
2018-10-12T11:35:34.789Z,3.90
2018-10-12T11:38:03.126Z,3.97
2018-10-12T11:40:31.422Z,4.77
2018-10-12T11:43:10.770Z,3.20
2018-10-12T11:45:39.340Z,5.70
2018-10-12T11:48:08.243Z,4.00
2018-10-12T11:50:36.593Z,4.13
2018-10-12T11:53:23.236Z,5.20
2018-10-12T11:55:51.689Z,4.47
2018-10-12T11:58:20.484Z,3.90
2018-10-12T12:00:48.850Z,7.03
2018-10-12T12:03:22.488Z,4.20
2018-10-12T12:05:54.084Z,6.40
2018-10-12T12:08:26.977Z,2.00
2018-10-12T12:10:56.080Z,14.80
2018-10-12T12:13:27.887Z,5.30
2018-10-12T12:15:59.146Z,4.07
2018-10-12T12:18:27.529Z,3.57
2018-10-12T12:20:56.037Z,6.77
2018-10-12T12:23:24.417Z,6.00
2018-10-12T12:25:55.553Z,7.40
2018-10-12T12:28:25.152Z,3.03
2018-10-12T12:30:53.506Z,3.80
2018-10-12T12:33:25.648Z,5.77
2018-10-12T12:35:54.430Z,7.60
2018-10-12T12:38:22.385Z,6.93
2018-10-12T12:40:50.769Z,7.00
2018-10-12T12:43:19.097Z,6.33
2018-10-12T12:45:47.433Z,3.97
2018-10-12T12:48:15.887Z,1.77
2018-10-12T12:50:44.069Z,5.10
2018-10-12T12:53:12.608Z,10.30
2018-10-12T12:55:41.152Z,2.17
2018-10-12T12:58:09.588Z,4.73
2018-10-12T13:00:37.969Z,5.30
2018-10-12T13:03:15.120Z,4.83
2018-10-12T13:05:52.194Z,18.67
2018-10-12T13:08:20.673Z,9.47
2018-10-12T13:10:49.033Z,2.40
2018-10-12T13:13:18.789Z,14.07
2018-10-12T13:15:48.308Z,2.93
2018-10-12T13:18:17.040Z,4.13
2018-10-12T13:20:46.624Z,2.67
2018-10-12T13:23:16.584Z,3.37
2018-10-12T13:25:44.922Z,2.20
2018-10-12T13:28:13.185Z,2.70
2018-10-12T13:30:41.529Z,1.20
2018-10-12T13:33:09.857Z,14.53
2018-10-12T13:35:38.344Z,2.93
2018-10-12T13:38:09.412Z,1.50
2018-10-12T13:40:38.855Z,4.50
2018-10-12T13:43:07.227Z,4.43
2018-10-12T13:45:35.537Z,3.77
2018-10-12T13:48:03.928Z,7.37
2018-10-12T13:50:33.114Z,8.93
2018-10-12T13:53:01.435Z,5.43
2018-10-12T13:55:33.677Z,7.13
2018-10-12T13:58:03.669Z,2.03
2018-10-12T14:00:32.874Z,2.97
2018-10-12T14:03:02.034Z,4.60
2018-10-12T14:05:31.055Z,5.30
2018-10-12T14:07:59.410Z,3.83
2018-10-12T14:10:29.824Z,9.37
2018-10-12T14:12:58.134Z,1.63
2018-10-12T14:15:26.776Z,3.13
2018-10-12T14:17:56.039Z,3.13
2018-10-12T14:20:28.695Z,3.77
2018-10-12T14:22:57.059Z,3.10
2018-10-12T14:25:25.574Z,3.63
2018-10-12T14:27:54.310Z,4.50
2018-10-12T14:30:23.135Z,4.57
2018-10-12T14:32:52.479Z,7.00
2018-10-12T14:35:28.768Z,2.80
2018-10-12T14:37:57.644Z,4.30
2018-10-12T14:40:25.868Z,2.40
2018-10-12T14:42:55.137Z,2.50
2018-10-12T14:45:27.952Z,7.13
2018-10-12T14:47:57.212Z,3.33
2018-10-12T14:50:25.535Z,3.80
2018-10-12T14:52:54.702Z,5.20
2018-10-12T14:55:23.008Z,4.23
2018-10-12T14:57:53.727Z,3.30
2018-10-12T15:00:22.135Z,4.87
2018-10-12T15:02:51.010Z,16.23
2018-10-12T15:05:19.357Z,9.23
2018-10-12T15:07:47.694Z,6.23
2018-10-12T15:10:15.992Z,4.80
2018-10-12T15:12:44.300Z,6.20
2018-10-12T15:15:22.768Z,1.87
2018-10-12T15:17:52.311Z,6.53
2018-10-12T15:20:21.176Z,3.10
2018-10-12T15:22:49.733Z,5.43
2018-10-12T15:25:18.730Z,5.23
2018-10-12T15:27:47.053Z,3.43
2018-10-12T15:30:16.096Z,3.40
2018-10-12T15:32:45.358Z,4.90
2018-10-12T15:35:18.487Z,2.70
2018-10-12T15:37:46.901Z,4.40
2018-10-12T15:40:15.293Z,6.07
2018-10-12T15:42:43.690Z,7.03
2018-10-12T15:45:11.960Z,6.20
2018-10-12T15:47:40.288Z,4.10
2018-10-12T15:50:08.661Z,5.60
2018-10-12T15:52:37.556Z,3.30
2018-10-12T15:55:05.895Z,8.70
2018-10-12T15:57:34.236Z,3.33
2018-10-12T16:00:02.850Z,9.87
2018-10-12T16:02:31.177Z,22.30
2018-10-12T16:05:04.170Z,8.93
2018-10-12T16:07:37.881Z,11.63
2018-10-12T16:10:13.398Z,10.17
2018-10-12T16:12:46.987Z,7.97
2018-10-12T16:15:22.978Z,8.50
2018-10-12T16:17:56.858Z,5.30
2018-10-12T16:20:27.895Z,11.80
2018-10-12T16:23:02.974Z,7.00
2018-10-12T16:25:56.429Z,5.80
2018-10-12T16:28:30.147Z,7.67
2018-10-12T16:31:06.192Z,10.33
2018-10-12T16:33:34.734Z,13.53
2018-10-12T16:36:03.691Z,10.23
2018-10-12T16:38:43.380Z,20.20
2018-10-12T16:41:11.825Z,10.00
2018-10-12T16:43:40.228Z,10.50
2018-10-12T16:46:08.582Z,9.33
2018-10-12T16:48:36.902Z,6.10
2018-10-12T16:51:05.218Z,8.13
2018-10-12T16:53:33.692Z,3.97
2018-10-12T16:56:02.020Z,6.07
2018-10-12T16:58:30.342Z,7.00
2018-10-12T17:00:59.445Z,14.83
2018-10-12T17:03:27.749Z,8.87
2018-10-12T17:05:56.049Z,13.63
2018-10-12T17:08:24.354Z,13.73
2018-10-12T17:10:52.690Z,12.03
2018-10-12T17:13:20.993Z,16.40
2018-10-12T17:15:51.110Z,11.80
2018-10-12T17:18:22.152Z,7.50
2018-10-12T17:20:50.823Z,12.13
2018-10-12T17:23:22.159Z,16.97
2018-10-12T17:25:50.483Z,19.07
2018-10-12T17:28:19.450Z,10.33
2018-10-12T17:30:47.761Z,7.57
2018-10-12T17:33:16.096Z,5.03
2018-10-12T17:35:44.443Z,7.77
2018-10-12T17:38:18.663Z,4.03
2018-10-12T17:40:48.925Z,9.03
2018-10-12T17:43:17.288Z,5.17
2018-10-12T17:45:45.690Z,6.30
2018-10-12T17:48:24.212Z,10.73
2018-10-12T17:50:56.618Z,6.20
2018-10-12T17:53:25.063Z,9.27
2018-10-12T17:55:53.494Z,8.30
2018-10-12T17:58:21.820Z,4.53
2018-10-12T18:00:50.145Z,13.50
2018-10-12T18:03:18.590Z,4.60
2018-10-12T18:05:46.905Z,11.73
2018-10-12T18:08:15.240Z,9.27
2018-10-12T18:13:56.857Z,7.70
2018-10-12T18:16:42.816Z,5.70
2018-10-12T18:19:47.583Z,11.07
2018-10-12T18:22:41.401Z,10.10
2018-10-12T18:30:33.571Z,4.90
2018-10-12T18:33:13.777Z,6.03
2018-10-12T18:36:08.078Z,12.43
2018-10-12T18:38:36.580Z,18.83
2018-10-12T18:41:04.946Z,7.63
2018-10-12T18:43:33.264Z,8.43
2018-10-12T18:46:01.602Z,10.73
2018-10-12T18:48:29.901Z,6.67
2018-10-12T18:50:58.390Z,9.83
2018-10-12T18:53:30.403Z,11.03
2018-10-12T18:55:59.878Z,12.10
2018-10-12T18:58:28.170Z,9.50
2018-10-12T19:01:01.413Z,17.37
2018-10-12T19:03:29.790Z,12.07
2018-10-12T19:05:58.096Z,9.80
2018-10-12T19:08:29.520Z,15.80
2018-10-12T19:11:03.091Z,11.23
2018-10-12T19:13:35.354Z,17.43
2018-10-12T19:16:06.725Z,18.20
2018-10-12T19:18:35.149Z,14.37
2018-10-12T19:21:03.508Z,23.67
2018-10-12T19:23:35.285Z,19.17
2018-10-12T19:26:04.832Z,17.90
2018-10-12T19:28:33.656Z,13.63
2018-10-12T19:31:02.130Z,23.07
2018-10-12T19:33:30.465Z,23.33
2018-10-12T19:35:58.830Z,18.77
2018-10-12T19:38:27.182Z,15.50
2018-10-12T19:40:55.565Z,16.57
2018-10-12T19:43:23.901Z,22.10
2018-10-12T19:45:52.265Z,15.23
2018-10-12T19:48:20.724Z,14.17
2018-10-12T19:50:49.028Z,6.40
2018-10-12T19:53:17.430Z,6.90
2018-10-12T19:55:45.962Z,7.50
2018-10-12T19:58:14.417Z,13.53
2018-10-12T20:00:42.745Z,13.20
2018-10-12T20:03:12.115Z,7.30
2018-10-12T20:05:40.429Z,12.47
2018-10-12T20:08:08.857Z,11.83
2018-10-12T20:10:37.313Z,11.40
2018-10-12T20:13:05.645Z,16.33
2018-10-12T20:15:34.024Z,8.17
2018-10-12T20:18:03.231Z,7.90
2018-10-12T20:20:36.993Z,11.03
2018-10-12T20:23:05.560Z,10.07
2018-10-12T20:25:39.908Z,13.27
2018-10-12T20:28:08.337Z,9.43
2018-10-12T20:30:36.689Z,13.77
2018-10-12T20:33:05.042Z,15.33
2018-10-12T20:35:33.382Z,12.50
2018-10-12T20:38:01.733Z,14.03
2018-10-12T20:40:30.066Z,8.70
2018-10-12T20:42:58.360Z,17.03
2018-10-12T20:45:26.681Z,7.63
2018-10-12T20:47:55.080Z,10.80
2018-10-12T20:50:24.102Z,10.20
2018-10-12T20:52:52.408Z,7.50
2018-10-12T20:55:20.741Z,16.93
2018-10-12T20:57:49.978Z,8.40
2018-10-12T21:00:19.212Z,7.67
2018-10-12T21:02:47.622Z,7.53
2018-10-12T21:05:15.984Z,9.77
2018-10-12T21:07:44.994Z,47.97
2018-10-12T21:10:13.501Z,13.60
2018-10-12T21:12:42.008Z,12.53
2018-10-12T21:15:10.521Z,12.03
2018-10-12T21:17:38.831Z,9.93
2018-10-12T21:20:07.560Z,11.20
2018-10-12T21:22:36.321Z,7.47
2018-10-12T21:25:04.657Z,15.50
2018-10-12T21:27:32.944Z,11.40
2018-10-12T21:30:01.797Z,14.10
2018-10-12T21:32:30.097Z,24.30
2018-10-12T21:34:58.426Z,12.30
2018-10-12T21:37:26.709Z,6.13
2018-10-12T21:39:55.015Z,6.27
2018-10-12T21:42:23.290Z,7.00
2018-10-12T21:44:51.599Z,7.90
2018-10-12T21:47:19.910Z,16.03
2018-10-12T21:49:48.645Z,10.80
2018-10-12T21:52:16.929Z,6.27
2018-10-12T21:54:45.316Z,8.60
2018-10-12T21:57:13.604Z,9.27
2018-10-12T21:59:41.912Z,17.73
2018-10-12T22:02:10.205Z,4.83
2018-10-12T22:04:38.530Z,17.70
2018-10-12T22:07:06.855Z,10.70
2018-10-12T22:09:35.162Z,11.20
2018-10-12T22:12:03.486Z,11.30
2018-10-12T22:14:31.816Z,11.73
2018-10-12T22:17:00.124Z,20.57
2018-10-12T22:19:28.465Z,9.90
2018-10-12T22:21:56.785Z,13.10
2018-10-12T22:24:25.092Z,12.50
2018-10-12T22:26:53.398Z,11.20
2018-10-12T22:29:21.697Z,15.03
2018-10-12T22:31:50.013Z,11.70
2018-10-12T22:34:18.324Z,10.37
2018-10-12T22:36:46.641Z,10.63
2018-10-12T22:39:14.969Z,12.13
2018-10-12T22:41:43.346Z,13.07
2018-10-12T22:44:11.658Z,7.60
2018-10-12T22:46:39.995Z,21.53
2018-10-12T22:49:08.345Z,15.73
2018-10-12T22:51:36.652Z,15.33
2018-10-12T22:54:05.007Z,5.90
2018-10-12T22:56:33.302Z,10.90
2018-10-12T22:59:02.416Z,8.20
2018-10-12T23:01:30.722Z,9.90
2018-10-12T23:03:59.034Z,9.13
2018-10-12T23:06:28.001Z,11.63
2018-10-12T23:08:56.349Z,5.47
2018-10-12T23:11:24.665Z,7.80
2018-10-12T23:13:53.062Z,6.63
2018-10-12T23:16:21.352Z,10.43
2018-10-12T23:18:49.739Z,9.00
2018-10-12T23:21:18.158Z,7.77
2018-10-12T23:23:46.489Z,12.37
2018-10-12T23:26:14.775Z,6.57
2018-10-12T23:28:43.141Z,7.00
2018-10-12T23:31:11.473Z,5.17
2018-10-12T23:33:50.803Z,14.77
2018-10-12T23:36:19.156Z,8.10
2018-10-12T23:38:47.748Z,7.37
2018-10-12T23:41:16.166Z,11.57
2018-10-12T23:43:44.553Z,9.10
2018-10-12T23:46:12.890Z,14.10
2018-10-12T23:48:41.197Z,9.53
2018-10-12T23:51:09.540Z,8.73
2018-10-12T23:53:37.841Z,4.03
2018-10-12T23:56:06.330Z,4.93
2018-10-12T23:58:34.568Z,10.67
